Terminal Aerodrome Forecast
Issued by NWS

Home | Current Version | Previous Version | Text Only | Print | Product List | Glossary On
Versions: 1 2 3 4 5 6 7 8 9 10 11 12 13
884
FTPA31 PHFO 181122
TAFHJR
TAF
PHJR 181122Z 1812/1912 07008KT P6SM VCSH FEW035 SCT050
     FM181900 06012G22KT P6SM VCSH FEW035 SCT050
     FM190500 06008G15KT P6SM VCSH FEW035 SCT050=

USA.gov is the U.S. government's official web portal to all federal, state and local government web resources and services.